createdAt,value
2019-03-10T00:00:07.599Z,1024.38
2019-03-10T00:01:07.585Z,1024.38
2019-03-10T00:02:07.569Z,1024.32
2019-03-10T00:03:07.569Z,1024.33
2019-03-10T00:04:07.541Z,1024.37
2019-03-10T00:05:07.526Z,1024.38
2019-03-10T00:06:07.511Z,1024.42
2019-03-10T00:07:07.498Z,1024.45
2019-03-10T00:08:08.098Z,1024.45
2019-03-10T00:09:07.468Z,1024.44
2019-03-10T00:10:07.453Z,1024.49
2019-03-10T00:11:07.439Z,1024.47
2019-03-10T00:12:07.425Z,1024.51
2019-03-10T00:13:07.416Z,1024.42
2019-03-10T00:14:07.395Z,1024.48
2019-03-10T00:15:07.381Z,1024.49
2019-03-10T00:16:07.370Z,1024.47
2019-03-10T00:17:07.351Z,1024.51
2019-03-10T00:18:07.336Z,1024.51
2019-03-10T00:19:07.322Z,1024.47
2019-03-10T00:20:07.308Z,1024.58
2019-03-10T00:21:07.294Z,1024.51
2019-03-10T00:22:07.279Z,1024.53
2019-03-10T00:23:07.263Z,1024.47
2019-03-10T00:24:07.252Z,1024.54
2019-03-10T00:25:07.235Z,1024.48
2019-03-10T00:26:07.247Z,1024.55
2019-03-10T00:27:07.209Z,1024.54
2019-03-10T00:28:07.191Z,1024.48
2019-03-10T00:29:07.175Z,1024.58
2019-03-10T00:30:07.161Z,1024.54
2019-03-10T00:31:07.147Z,1024.53
2019-03-10T00:32:07.131Z,1024.52
2019-03-10T00:33:07.117Z,1024.54
2019-03-10T00:34:07.102Z,1024.52
2019-03-10T00:35:07.092Z,1024.57
2019-03-10T00:36:07.073Z,1024.48
2019-03-10T00:37:07.061Z,1024.56
2019-03-10T00:38:07.044Z,1024.64
2019-03-10T00:39:07.030Z,1024.65
2019-03-10T00:40:07.019Z,1024.56
2019-03-10T00:41:06.999Z,1024.67
2019-03-10T00:42:06.984Z,1024.61
2019-03-10T00:43:06.969Z,1024.62
2019-03-10T00:44:06.954Z,1024.61
2019-03-10T00:45:06.940Z,1024.61
2019-03-10T00:46:06.925Z,1024.52
2019-03-10T00:47:06.911Z,1024.56
2019-03-10T00:48:06.896Z,1024.58
2019-03-10T00:49:06.882Z,1024.57
2019-03-10T00:50:06.866Z,1024.55
2019-03-10T00:51:06.852Z,1024.51
2019-03-10T00:52:06.840Z,1024.58
2019-03-10T00:53:06.823Z,1024.63
2019-03-10T00:54:06.808Z,1024.56
2019-03-10T00:55:06.796Z,1024.63
2019-03-10T00:56:06.780Z,1024.57
2019-03-10T00:57:06.764Z,1024.46
2019-03-10T00:58:06.751Z,1024.45
2019-03-10T00:59:06.735Z,1024.45
2019-03-10T01:00:06.721Z,1024.56
2019-03-10T01:01:06.706Z,1024.57
2019-03-10T01:02:06.693Z,1024.54
2019-03-10T01:03:06.696Z,1024.6
2019-03-10T01:04:06.670Z,1024.56
2019-03-10T01:05:06.646Z,1024.51
2019-03-10T01:06:06.632Z,1024.58
2019-03-10T01:07:06.620Z,1024.56
2019-03-10T01:08:06.603Z,1024.61
2019-03-10T01:09:06.587Z,1024.61
2019-03-10T01:10:06.573Z,1024.61
2019-03-10T01:11:06.558Z,1024.55
2019-03-10T01:12:06.543Z,1024.59
2019-03-10T01:13:06.533Z,1024.54
2019-03-10T01:14:06.516Z,1024.49
2019-03-10T01:15:06.498Z,1024.5
2019-03-10T01:16:06.486Z,1024.46
2019-03-10T01:17:06.469Z,1024.48
2019-03-10T01:18:06.455Z,1024.56
2019-03-10T01:19:06.440Z,1024.5
2019-03-10T01:20:06.425Z,1024.45
2019-03-10T01:21:06.413Z,1024.54
2019-03-10T01:22:06.396Z,1024.52
2019-03-10T01:23:06.425Z,1024.52
2019-03-10T01:24:06.366Z,1024.54
2019-03-10T01:25:06.352Z,1024.51
2019-03-10T01:26:06.335Z,1024.47
2019-03-10T01:27:06.323Z,1024.61
2019-03-10T01:28:06.306Z,1024.57
2019-03-10T01:29:06.292Z,1024.54
2019-03-10T01:30:06.276Z,1024.51
2019-03-10T01:31:06.262Z,1024.52
2019-03-10T01:32:06.247Z,1024.42
2019-03-10T01:33:06.232Z,1024.39
2019-03-10T01:34:06.220Z,1024.42
2019-03-10T01:35:06.201Z,1024.4
2019-03-10T01:36:06.187Z,1024.49
2019-03-10T01:37:06.173Z,1024.46
2019-03-10T01:38:06.157Z,1024.54
2019-03-10T01:39:06.143Z,1024.41
2019-03-10T01:40:06.129Z,1024.47
2019-03-10T01:41:06.112Z,1024.47
2019-03-10T01:42:06.099Z,1024.4
2019-03-10T01:43:06.082Z,1024.38
2019-03-10T01:44:06.073Z,1024.45
2019-03-10T01:45:06.053Z,1024.36
2019-03-10T01:46:06.037Z,1024.37
2019-03-10T01:47:06.025Z,1024.41
2019-03-10T01:48:06.008Z,1024.44
2019-03-10T01:49:05.993Z,1024.36
2019-03-10T01:50:05.979Z,1024.31
2019-03-10T01:51:05.965Z,1024.36
2019-03-10T01:52:05.947Z,1024.32
2019-03-10T01:53:05.933Z,1024.4
2019-03-10T01:54:05.957Z,1024.38
2019-03-10T01:55:05.905Z,1024.4
2019-03-10T01:56:05.893Z,1024.41
2019-03-10T01:57:05.873Z,1024.34
2019-03-10T01:58:05.858Z,1024.39
2019-03-10T01:59:05.843Z,1024.41
2019-03-10T02:00:05.827Z,1024.39
2019-03-10T02:01:05.813Z,1024.42
2019-03-10T02:02:05.800Z,1024.39
2019-03-10T02:03:05.782Z,1024.4
2019-03-10T02:04:05.768Z,1024.44
2019-03-10T02:05:05.753Z,1024.43
2019-03-10T02:06:05.740Z,1024.43
2019-03-10T02:07:05.722Z,1024.37
2019-03-10T02:08:05.707Z,1024.33
2019-03-10T02:09:05.697Z,1024.28
2019-03-10T02:10:05.678Z,1024.27
2019-03-10T02:11:05.662Z,1024.25
2019-03-10T02:12:05.647Z,1024.25
2019-03-10T02:13:05.632Z,1024.24
2019-03-10T02:14:05.617Z,1024.25
2019-03-10T02:15:05.602Z,1024.22
2019-03-10T02:16:05.587Z,1024.24
2019-03-10T02:17:05.572Z,1024.23
2019-03-10T02:18:05.556Z,1024.32
2019-03-10T02:19:05.542Z,1024.26
2019-03-10T02:20:05.527Z,1024.35
2019-03-10T02:21:05.512Z,1024.28
2019-03-10T02:22:05.496Z,1024.3
2019-03-10T02:23:05.482Z,1024.32
2019-03-10T02:24:05.469Z,1024.32
2019-03-10T02:25:05.451Z,1024.26
2019-03-10T02:26:05.436Z,1024.27
2019-03-10T02:27:05.421Z,1024.26
2019-03-10T02:28:05.407Z,1024.27
2019-03-10T02:29:05.391Z,1024.22
2019-03-10T02:30:05.377Z,1024.25
2019-03-10T02:31:05.365Z,1024.28
2019-03-10T02:32:05.352Z,1024.25
2019-03-10T02:33:05.332Z,1024.27
2019-03-10T02:34:05.316Z,1024.27
2019-03-10T02:35:05.309Z,1024.32
2019-03-10T02:36:05.290Z,1024.35
2019-03-10T02:37:05.271Z,1024.39
2019-03-10T02:38:05.258Z,1024.35
2019-03-10T02:39:05.239Z,1024.35
2019-03-10T02:40:05.227Z,1024.36
2019-03-10T02:41:05.211Z,1024.39
2019-03-10T02:42:05.196Z,1024.35
2019-03-10T02:43:05.180Z,1024.31
2019-03-10T02:44:05.164Z,1024.29
2019-03-10T02:45:05.151Z,1024.29
2019-03-10T02:46:05.136Z,1024.25
2019-03-10T02:47:05.122Z,1024.25
2019-03-10T02:48:05.103Z,1024.23
2019-03-10T02:49:05.089Z,1024.15
2019-03-10T02:50:05.075Z,1024.18
2019-03-10T02:51:05.058Z,1024.15
2019-03-10T02:52:05.044Z,1024.11
2019-03-10T02:53:05.030Z,1024.16
2019-03-10T02:54:05.013Z,1024.16
2019-03-10T02:55:04.999Z,1024.15
2019-03-10T02:56:04.987Z,1024.09
2019-03-10T02:57:04.968Z,1024.04
2019-03-10T02:58:04.960Z,1023.98
2019-03-10T02:59:04.937Z,1023.93
2019-03-10T03:00:04.922Z,1023.92
2019-03-10T03:01:04.909Z,1023.93
2019-03-10T03:02:04.891Z,1023.84
2019-03-10T03:03:04.889Z,1023.83
2019-03-10T03:04:04.860Z,1023.82
2019-03-10T03:05:04.846Z,1023.8
2019-03-10T03:06:04.832Z,1023.72
2019-03-10T03:07:04.815Z,1023.76
2019-03-10T03:08:04.808Z,1023.7
2019-03-10T03:09:04.785Z,1023.69
2019-03-10T03:10:04.771Z,1023.64
2019-03-10T03:11:04.755Z,1023.66
2019-03-10T03:12:04.738Z,1023.63
2019-03-10T03:13:04.725Z,1023.6
2019-03-10T03:14:04.708Z,1023.64
2019-03-10T03:15:04.700Z,1023.59
2019-03-10T03:16:04.703Z,1023.6
2019-03-10T03:17:04.664Z,1023.58
2019-03-10T03:18:04.649Z,1023.59
2019-03-10T03:19:04.635Z,1023.6
2019-03-10T03:20:04.617Z,1023.58
2019-03-10T03:21:04.621Z,1023.59
2019-03-10T03:22:04.589Z,1023.55
2019-03-10T03:23:04.576Z,1023.54
2019-03-10T03:24:04.565Z,1023.57
2019-03-10T03:25:04.543Z,1023.55
2019-03-10T03:26:04.527Z,1023.52
2019-03-10T03:27:04.538Z,1023.53
2019-03-10T03:28:04.497Z,1023.47
2019-03-10T03:29:04.481Z,1023.5
2019-03-10T03:30:04.467Z,1023.49
2019-03-10T03:31:04.470Z,1023.42
2019-03-10T03:32:04.437Z,1023.42
2019-03-10T03:33:04.425Z,1023.43
2019-03-10T03:34:04.408Z,1023.42
2019-03-10T03:35:04.396Z,1023.43
2019-03-10T03:36:04.377Z,1023.44
2019-03-10T03:37:04.361Z,1023.46
2019-03-10T03:38:04.354Z,1023.42
2019-03-10T03:39:04.332Z,1023.39
2019-03-10T03:40:04.316Z,1023.4
2019-03-10T03:41:04.309Z,1023.41
2019-03-10T03:42:04.285Z,1023.37
2019-03-10T03:43:04.270Z,1023.31
2019-03-10T03:44:04.266Z,1023.24
2019-03-10T03:45:04.240Z,1023.17
2019-03-10T03:46:04.225Z,1023.17
2019-03-10T03:47:04.210Z,1023.16
2019-03-10T03:48:04.196Z,1023.21
2019-03-10T03:49:04.180Z,1023.24
2019-03-10T03:50:04.196Z,1023.21
2019-03-10T03:51:04.149Z,1023.27
2019-03-10T03:52:04.137Z,1023.23
2019-03-10T03:53:04.119Z,1023.25
2019-03-10T03:54:04.109Z,1023.23
2019-03-10T03:55:04.089Z,1023.27
2019-03-10T03:56:04.075Z,1023.25
2019-03-10T03:57:04.059Z,1023.27
2019-03-10T03:58:04.044Z,1023.27
2019-03-10T03:59:04.046Z,1023.3
2019-03-10T04:00:04.014Z,1023.35
2019-03-10T04:01:04.005Z,1023.34
2019-03-10T04:02:03.984Z,1023.33
2019-03-10T04:03:03.970Z,1023.35
2019-03-10T04:04:03.956Z,1023.32
2019-03-10T04:05:03.943Z,1023.32
2019-03-10T04:06:03.939Z,1023.31
2019-03-10T04:07:03.910Z,1023.32
2019-03-10T04:08:03.895Z,1023.35
2019-03-10T04:09:03.888Z,1023.35
2019-03-10T04:10:03.866Z,1023.37
2019-03-10T04:11:03.850Z,1023.38
2019-03-10T04:12:03.836Z,1023.39
2019-03-10T04:13:03.826Z,1023.43
2019-03-10T04:14:03.806Z,1023.4
2019-03-10T04:15:03.791Z,1023.44
2019-03-10T04:16:03.776Z,1023.39
2019-03-10T04:17:03.761Z,1023.43
2019-03-10T04:18:03.746Z,1023.43
2019-03-10T04:19:03.734Z,1023.46
2019-03-10T04:20:03.731Z,1023.44
2019-03-10T04:21:03.702Z,1023.43
2019-03-10T04:22:03.685Z,1023.47
2019-03-10T04:23:03.670Z,1023.44
2019-03-10T04:24:03.655Z,1023.4
2019-03-10T04:25:03.639Z,1023.39
2019-03-10T04:26:03.624Z,1023.37
2019-03-10T04:27:03.611Z,1023.38
2019-03-10T04:28:03.622Z,1023.33
2019-03-10T04:29:03.586Z,1023.29
2019-03-10T04:30:03.564Z,1023.31
2019-03-10T04:31:03.551Z,1023.23
2019-03-10T04:32:03.535Z,1023.15
2019-03-10T04:33:03.518Z,1023.17
2019-03-10T04:34:03.503Z,1023.17
2019-03-10T04:35:03.488Z,1023.13
2019-03-10T04:36:03.476Z,1023.09
2019-03-10T04:37:03.458Z,1023.03
2019-03-10T04:38:03.444Z,1022.98
2019-03-10T04:39:03.428Z,1022.98
2019-03-10T04:40:03.413Z,1022.94
2019-03-10T04:41:03.397Z,1022.93
2019-03-10T04:42:03.383Z,1022.95
2019-03-10T04:43:03.368Z,1022.99
2019-03-10T04:44:03.355Z,1023.04
2019-03-10T04:45:03.338Z,1023.01
2019-03-10T04:46:03.379Z,1023.06
2019-03-10T04:47:03.308Z,1023.06
2019-03-10T04:48:03.298Z,1023.06
2019-03-10T04:49:03.278Z,1023.1
2019-03-10T04:50:03.265Z,1023.09
2019-03-10T04:51:03.248Z,1023.13
2019-03-10T04:52:03.234Z,1023.12
2019-03-10T04:53:03.219Z,1023.14
2019-03-10T04:54:03.207Z,1023.14
2019-03-10T04:55:03.189Z,1023.1
2019-03-10T04:56:03.177Z,1023.13
2019-03-10T04:57:03.162Z,1023.11
2019-03-10T04:58:03.149Z,1023.04
2019-03-10T04:59:03.129Z,1023.02
2019-03-10T05:00:03.115Z,1023
2019-03-10T05:01:03.103Z,1023.02
2019-03-10T05:02:03.084Z,1023.02
2019-03-10T05:03:03.070Z,1023.01
2019-03-10T05:04:03.057Z,1022.96
2019-03-10T05:05:03.041Z,1022.91
2019-03-10T05:06:03.027Z,1022.89
2019-03-10T05:07:03.013Z,1022.94
2019-03-10T05:08:02.996Z,1022.9
2019-03-10T05:09:02.984Z,1022.88
2019-03-10T05:10:02.966Z,1022.84
2019-03-10T05:11:02.952Z,1022.9
2019-03-10T05:12:02.936Z,1022.87
2019-03-10T05:13:02.923Z,1022.81
2019-03-10T05:14:02.906Z,1022.83
2019-03-10T05:15:02.893Z,1022.79
2019-03-10T05:16:02.878Z,1022.77
2019-03-10T05:17:02.862Z,1022.8
2019-03-10T05:18:02.847Z,1022.82
2019-03-10T05:19:02.833Z,1022.73
2019-03-10T05:20:02.817Z,1022.72
2019-03-10T05:21:02.803Z,1022.72
2019-03-10T05:22:02.788Z,1022.62
2019-03-10T05:23:02.774Z,1022.57
2019-03-10T05:24:02.758Z,1022.5
2019-03-10T05:25:02.745Z,1022.49
2019-03-10T05:26:02.729Z,1022.45
2019-03-10T05:27:02.715Z,1022.35
2019-03-10T05:28:02.700Z,1022.34
2019-03-10T05:29:02.705Z,1022.3
2019-03-10T05:30:02.672Z,1022.29
2019-03-10T05:31:02.656Z,1022.29
2019-03-10T05:32:02.642Z,1022.3
2019-03-10T05:33:02.627Z,1022.33
2019-03-10T05:34:02.613Z,1022.32
2019-03-10T05:35:02.598Z,1022.38
2019-03-10T05:36:02.584Z,1022.36
2019-03-10T05:37:02.569Z,1022.34
2019-03-10T05:38:02.556Z,1022.37
2019-03-10T05:39:02.541Z,1022.44
2019-03-10T05:40:02.528Z,1022.41
2019-03-10T05:41:02.514Z,1022.43
2019-03-10T05:42:02.498Z,1022.43
2019-03-10T05:43:02.484Z,1022.46
2019-03-10T05:44:02.470Z,1022.43
2019-03-10T05:45:02.457Z,1022.39
2019-03-10T05:46:02.441Z,1022.38
2019-03-10T05:47:02.428Z,1022.37
2019-03-10T05:48:02.416Z,1022.33
2019-03-10T05:49:02.407Z,1022.23
2019-03-10T05:50:02.386Z,1022.25
2019-03-10T05:51:02.373Z,1022.2
2019-03-10T05:52:02.360Z,1022.22
2019-03-10T05:53:02.341Z,1022.21
2019-03-10T05:54:02.327Z,1022.17
2019-03-10T05:55:02.313Z,1022.18
2019-03-10T05:56:02.298Z,1022.18
2019-03-10T05:57:02.284Z,1022.14
2019-03-10T05:58:02.271Z,1022.1
2019-03-10T05:59:02.256Z,1022.1
2019-03-10T06:00:02.241Z,1022.05
2019-03-10T06:01:02.227Z,1022.03
2019-03-10T06:02:02.213Z,1022.01
2019-03-10T06:03:02.199Z,1021.96
2019-03-10T06:04:02.184Z,1021.92
2019-03-10T06:05:02.171Z,1021.94
2019-03-10T06:06:02.156Z,1021.81
2019-03-10T06:07:02.144Z,1021.73
2019-03-10T06:08:02.131Z,1021.7
2019-03-10T06:09:02.113Z,1021.65
2019-03-10T06:10:02.100Z,1021.63
2019-03-10T06:11:02.087Z,1021.58
2019-03-10T06:12:02.071Z,1021.54
2019-03-10T06:13:02.057Z,1021.54
2019-03-10T06:14:02.044Z,1021.49
2019-03-10T06:15:02.033Z,1021.48
2019-03-10T06:16:02.015Z,1021.46
2019-03-10T06:17:02.001Z,1021.29
2019-03-10T06:18:12.633Z,1021.3
2019-03-10T06:19:01.974Z,1021.27
2019-03-10T06:20:01.960Z,1021.26
2019-03-10T06:21:01.947Z,1021.2
2019-03-10T06:22:01.954Z,1021.15
2019-03-10T06:23:01.918Z,1021.13
2019-03-10T06:24:01.939Z,1021.02
2019-03-10T06:25:01.897Z,1020.99
2019-03-10T06:26:01.884Z,1020.92
2019-03-10T06:27:01.868Z,1020.82
2019-03-10T06:28:01.856Z,1020.77
2019-03-10T06:29:01.836Z,1020.65
2019-03-10T06:30:01.821Z,1020.61
2019-03-10T06:31:01.808Z,1020.63
2019-03-10T06:32:01.801Z,1020.53
2019-03-10T06:33:01.781Z,1020.43
2019-03-10T06:34:01.769Z,1020.35
2019-03-10T06:35:01.756Z,1020.34
2019-03-10T06:36:01.746Z,1020.44
2019-03-10T06:37:01.727Z,1020.49
2019-03-10T06:38:01.715Z,1020.49
2019-03-10T06:39:01.704Z,1020.38
2019-03-10T06:40:01.689Z,1020.28
2019-03-10T06:41:01.674Z,1020.11
2019-03-10T06:42:01.665Z,1019.87
2019-03-10T06:43:01.649Z,1019.44
2019-03-10T06:44:01.636Z,1019.26
2019-03-10T06:45:01.625Z,1018.78
2019-03-10T06:46:01.613Z,1018.56
2019-03-10T06:47:01.599Z,1018.33
2019-03-10T06:48:01.586Z,1018.31
2019-03-10T06:49:01.574Z,1018.26
2019-03-10T06:50:01.564Z,1018.21
2019-03-10T06:51:01.552Z,1018.25
2019-03-10T06:52:01.542Z,1018.25
2019-03-10T06:53:01.529Z,1018.18
2019-03-10T06:54:01.523Z,1018.1
2019-03-10T06:55:01.514Z,1018.01
2019-03-10T06:56:01.496Z,1017.97
2019-03-10T06:57:01.484Z,1017.9
2019-03-10T06:58:01.518Z,1017.89
2019-03-10T06:59:01.474Z,1017.88
2019-03-10T07:00:01.452Z,1017.81
2019-03-10T07:01:01.441Z,1017.87
2019-03-10T07:02:01.434Z,1017.82
2019-03-10T07:03:01.422Z,1017.77
2019-03-10T07:04:01.410Z,1017.78
2019-03-10T07:05:01.421Z,1017.77
2019-03-10T07:06:01.388Z,1017.81
2019-03-10T07:07:01.378Z,1017.81
2019-03-10T07:08:01.406Z,1017.81
2019-03-10T07:09:01.358Z,1017.8
2019-03-10T07:10:01.351Z,1017.78
2019-03-10T07:11:01.338Z,1017.77
2019-03-10T07:12:01.373Z,1017.74
2019-03-10T07:13:01.318Z,1017.67
2019-03-10T07:14:01.312Z,1017.71
2019-03-10T07:15:01.316Z,1017.75
2019-03-10T07:16:01.296Z,1017.83
2019-03-10T07:17:01.280Z,1017.85
2019-03-10T07:18:01.270Z,1017.81
2019-03-10T07:19:01.264Z,1017.84
2019-03-10T07:20:01.254Z,1017.86
2019-03-10T07:21:01.248Z,1017.79
2019-03-10T07:22:01.229Z,1017.77
2019-03-10T07:23:01.224Z,1017.77
2019-03-10T07:24:01.209Z,1017.76
2019-03-10T07:25:01.204Z,1017.72
2019-03-10T07:26:01.190Z,1017.68
2019-03-10T07:27:02.229Z,1017.66
2019-03-10T07:28:01.170Z,1017.61
2019-03-10T07:29:01.184Z,1017.6
2019-03-10T07:30:01.151Z,1017.6
2019-03-10T07:31:01.197Z,1017.57
2019-03-10T07:32:01.133Z,1017.59
2019-03-10T07:33:01.121Z,1017.6
2019-03-10T07:34:01.111Z,1017.55
2019-03-10T07:35:01.102Z,1017.48
2019-03-10T07:36:01.094Z,1017.4
2019-03-10T07:37:01.082Z,1017.36
2019-03-10T07:38:01.073Z,1017.32
2019-03-10T07:39:01.062Z,1017.31
2019-03-10T07:40:01.055Z,1017.25
2019-03-10T07:41:01.044Z,1017.21
2019-03-10T07:42:01.052Z,1017.15
2019-03-10T07:43:01.024Z,1017.1
2019-03-10T07:44:01.015Z,1017.05
2019-03-10T07:45:01.005Z,1016.98
2019-03-10T07:46:00.997Z,1016.86
2019-03-10T07:47:00.986Z,1016.79
2019-03-10T07:48:00.977Z,1016.75
2019-03-10T07:49:00.968Z,1016.69
2019-03-10T07:50:00.958Z,1016.65
2019-03-10T07:51:00.949Z,1016.56
2019-03-10T07:52:00.949Z,1016.49
2019-03-10T07:53:00.933Z,1016.43
2019-03-10T07:54:00.922Z,1016.42
2019-03-10T07:55:00.913Z,1016.4
2019-03-10T07:56:00.904Z,1016.4
2019-03-10T07:57:00.898Z,1016.36
2019-03-10T07:58:00.886Z,1016.28
2019-03-10T07:59:00.879Z,1016.23
2019-03-10T08:00:00.870Z,1016.22
2019-03-10T08:01:00.859Z,1016.22
2019-03-10T08:02:00.852Z,1016.16
2019-03-10T08:03:00.846Z,1016.1
2019-03-10T08:04:00.836Z,1016.04
2019-03-10T08:05:00.856Z,1016
2019-03-10T08:06:00.818Z,1015.96
2019-03-10T08:07:00.809Z,1015.9
2019-03-10T08:08:00.800Z,1015.8
2019-03-10T08:09:00.793Z,1015.76
2019-03-10T08:10:00.784Z,1015.75
2019-03-10T08:11:00.777Z,1015.7
2019-03-10T08:12:00.767Z,1015.66
2019-03-10T08:13:00.760Z,1015.66
2019-03-10T08:14:00.752Z,1015.57
2019-03-10T08:15:00.748Z,1015.56
2019-03-10T08:16:00.735Z,1015.51
2019-03-10T08:17:00.727Z,1015.52
2019-03-10T08:18:00.720Z,1015.53
2019-03-10T08:19:00.711Z,1015.45
2019-03-10T08:20:00.703Z,1015.45
2019-03-10T08:21:00.696Z,1015.35
2019-03-10T08:22:00.687Z,1015.29
2019-03-10T08:23:00.679Z,1015.26
2019-03-10T08:24:00.685Z,1015.22
2019-03-10T08:25:00.664Z,1015.13
2019-03-10T08:26:00.657Z,1015.01
2019-03-10T08:27:00.649Z,1014.94
2019-03-10T08:28:01.705Z,1014.91
2019-03-10T08:29:00.634Z,1014.83
2019-03-10T08:30:00.625Z,1014.87
2019-03-10T08:31:00.618Z,1014.85
2019-03-10T08:32:00.614Z,1014.86
2019-03-10T08:33:00.604Z,1014.84
2019-03-10T08:34:00.596Z,1014.8
2019-03-10T08:35:00.588Z,1014.77
2019-03-10T08:36:00.581Z,1014.81
2019-03-10T08:37:00.574Z,1014.79
2019-03-10T08:38:00.568Z,1014.79
2019-03-10T08:39:00.559Z,1014.76
2019-03-10T08:40:00.552Z,1014.74
2019-03-10T08:41:00.544Z,1014.73
2019-03-10T08:42:00.538Z,1014.65
2019-03-10T08:43:00.530Z,1014.65
2019-03-10T08:44:00.523Z,1014.59
2019-03-10T08:45:00.515Z,1014.5
2019-03-10T08:46:00.508Z,1014.45
2019-03-10T08:47:00.502Z,1014.38
2019-03-10T08:48:00.495Z,1014.22
2019-03-10T08:49:00.488Z,1014.17
2019-03-10T08:50:00.483Z,1014
2019-03-10T08:51:00.475Z,1013.85
2019-03-10T08:52:00.466Z,1013.84
2019-03-10T08:53:00.460Z,1013.86
2019-03-10T08:54:00.453Z,1013.9
2019-03-10T08:55:00.446Z,1013.84
2019-03-10T08:56:00.440Z,1013.91
2019-03-10T08:57:00.433Z,1013.97
2019-03-10T08:58:00.426Z,1013.98
2019-03-10T08:59:00.419Z,1014
2019-03-10T09:00:00.419Z,1013.97
2019-03-10T09:01:00.406Z,1014
2019-03-10T09:02:00.401Z,1013.92
2019-03-10T09:03:00.392Z,1013.91
2019-03-10T09:04:00.503Z,1013.86
2019-03-10T09:05:00.380Z,1013.85
2019-03-10T09:06:00.374Z,1013.84
2019-03-10T09:07:00.367Z,1013.8
2019-03-10T09:08:00.360Z,1013.85
2019-03-10T09:09:00.354Z,1013.77
2019-03-10T09:10:00.378Z,1013.73
2019-03-10T09:11:00.341Z,1013.75
2019-03-10T09:12:00.335Z,1013.71
2019-03-10T09:13:00.329Z,1013.64
2019-03-10T09:14:00.323Z,1013.63
2019-03-10T09:15:00.382Z,1013.59
2019-03-10T09:16:00.313Z,1013.44
2019-03-10T09:17:00.305Z,1013.49
2019-03-10T09:18:00.297Z,1013.43
2019-03-10T09:19:00.291Z,1013.37
2019-03-10T09:20:00.402Z,1013.35
2019-03-10T09:21:00.279Z,1013.28
2019-03-10T09:22:00.436Z,1013.29
2019-03-10T09:23:00.266Z,1013.31
2019-03-10T09:24:00.259Z,1013.36
2019-03-10T09:25:00.268Z,1013.27
2019-03-10T09:26:00.250Z,1013.18
2019-03-10T09:27:00.243Z,1013.18
2019-03-10T09:28:00.243Z,1013.11
2019-03-10T09:29:00.229Z,1013.01
2019-03-10T09:30:00.442Z,1013.01
2019-03-10T09:31:00.218Z,1012.93
2019-03-10T09:32:00.216Z,1012.84
2019-03-10T09:33:00.231Z,1012.83
2019-03-10T09:34:00.198Z,1012.75
2019-03-10T09:35:00.363Z,1012.69
2019-03-10T09:36:00.186Z,1012.67
2019-03-10T09:37:00.181Z,1012.69
2019-03-10T09:38:00.180Z,1012.65
2019-03-10T09:39:00.170Z,1012.66
2019-03-10T09:40:00.344Z,1012.62
2019-03-10T09:41:00.157Z,1012.63
2019-03-10T09:42:00.152Z,1012.61
2019-03-10T09:43:00.147Z,1012.7
2019-03-10T09:44:00.190Z,1012.66
2019-03-10T09:45:00.286Z,1012.67
2019-03-10T09:46:00.128Z,1012.75
2019-03-10T09:47:00.125Z,1012.8
2019-03-10T09:48:00.116Z,1012.76
2019-03-10T09:49:00.115Z,1012.69
2019-03-10T09:50:00.178Z,1012.69
2019-03-10T09:51:00.100Z,1012.58
2019-03-10T09:52:00.092Z,1012.56
2019-03-10T09:53:00.087Z,1012.45
2019-03-10T09:54:00.082Z,1012.46
2019-03-10T09:55:01.030Z,1012.44
2019-03-10T09:56:00.069Z,1012.49
2019-03-10T09:57:00.064Z,1012.56
2019-03-10T09:58:00.057Z,1012.59
2019-03-10T09:59:00.054Z,1012.5
2019-03-10T10:00:00.046Z,1012.45
2019-03-10T10:01:00.042Z,1012.42
2019-03-10T10:02:00.034Z,1012.36
2019-03-10T10:03:00.031Z,1012.38
2019-03-10T10:04:00.023Z,1012.35
2019-03-10T10:05:00.016Z,1012.31
2019-03-10T10:06:00.011Z,1012.29
2019-03-10T10:07:00.005Z,1012.38
2019-03-10T10:07:59.999Z,1012.38
2019-03-10T10:08:59.993Z,1012.47
2019-03-10T10:09:59.987Z,1012.54
2019-03-10T10:10:59.991Z,1012.65
2019-03-10T10:11:59.977Z,1012.84
2019-03-10T10:12:59.971Z,1012.95
2019-03-10T10:13:59.964Z,1013.06
2019-03-10T10:14:59.958Z,1013.2
2019-03-10T10:15:59.953Z,1013.26
2019-03-10T10:16:59.946Z,1013.23
2019-03-10T10:17:59.939Z,1013.22
2019-03-10T10:18:59.933Z,1013.24
2019-03-10T10:19:59.926Z,1013.31
2019-03-10T10:20:59.922Z,1013.25
2019-03-10T10:21:59.914Z,1013.27
2019-03-10T10:22:59.912Z,1013.23
2019-03-10T10:23:59.901Z,1013.19
2019-03-10T10:24:59.895Z,1013.15
2019-03-10T10:25:59.888Z,1013.11
2019-03-10T10:26:59.882Z,1013.1
2019-03-10T10:27:59.875Z,1013.08
2019-03-10T10:28:59.868Z,1013.11
2019-03-10T10:29:59.861Z,1013.14
2019-03-10T10:30:59.854Z,1013.13
2019-03-10T10:31:59.847Z,1013.12
2019-03-10T10:32:59.840Z,1013.11
2019-03-10T10:33:59.833Z,1013.02
2019-03-10T10:34:59.826Z,1013.02
2019-03-10T10:35:59.819Z,1013.03
2019-03-10T10:36:59.813Z,1013.02
2019-03-10T10:37:59.805Z,1013
2019-03-10T10:38:59.799Z,1013.01
2019-03-10T10:39:59.797Z,1012.95
2019-03-10T10:40:59.784Z,1012.9
2019-03-10T10:41:59.776Z,1012.87
2019-03-10T10:42:59.769Z,1012.83
2019-03-10T10:43:59.765Z,1012.76
2019-03-10T10:44:59.755Z,1012.69
2019-03-10T10:45:59.748Z,1012.64
2019-03-10T10:46:59.741Z,1012.61
2019-03-10T10:47:59.734Z,1012.55
2019-03-10T10:48:59.725Z,1012.49
2019-03-10T10:49:59.732Z,1012.48
2019-03-10T10:50:59.728Z,1012.37
2019-03-10T10:51:59.706Z,1012.46
2019-03-10T10:52:59.712Z,1012.41
2019-03-10T10:53:59.694Z,1012.42
2019-03-10T10:54:59.685Z,1012.44
2019-03-10T10:55:59.686Z,1012.52
2019-03-10T10:56:59.671Z,1012.55
2019-03-10T10:57:59.672Z,1012.52
2019-03-10T10:58:59.658Z,1012.55
2019-03-10T10:59:59.648Z,1012.53
2019-03-10T11:00:59.640Z,1012.54
2019-03-10T11:01:59.635Z,1012.53
2019-03-10T11:02:59.627Z,1012.65
2019-03-10T11:03:59.619Z,1012.72
2019-03-10T11:04:59.613Z,1012.73
2019-03-10T11:05:59.604Z,1012.82
2019-03-10T11:06:59.601Z,1012.91
2019-03-10T11:07:59.589Z,1012.95
2019-03-10T11:08:59.582Z,1013.13
2019-03-10T11:09:59.575Z,1013.2
2019-03-10T11:10:59.567Z,1013.36
2019-03-10T11:11:59.566Z,1013.47
2019-03-10T11:12:59.552Z,1013.7
2019-03-10T11:13:59.545Z,1013.81
2019-03-10T11:14:59.536Z,1013.97
2019-03-10T11:15:59.528Z,1014.03
2019-03-10T11:16:59.521Z,1014.06
2019-03-10T11:18:08.716Z,1014.03
2019-03-10T11:18:59.505Z,1014.02
2019-03-10T11:19:59.501Z,1013.94
2019-03-10T11:20:59.489Z,1013.89
2019-03-10T11:21:59.491Z,1013.77
2019-03-10T11:22:59.472Z,1013.58
2019-03-10T11:23:59.466Z,1013.43
2019-03-10T11:24:59.456Z,1013.2
2019-03-10T11:25:59.504Z,1013.12
2019-03-10T11:26:59.439Z,1013.02
2019-03-10T11:27:59.430Z,1013.04
2019-03-10T11:29:01.605Z,1013.04
2019-03-10T11:29:59.414Z,1013.07
2019-03-10T11:30:59.405Z,1013.09
2019-03-10T11:31:59.400Z,1013.08
2019-03-10T11:32:59.389Z,1013.06
2019-03-10T11:33:59.383Z,1013
2019-03-10T11:34:59.387Z,1012.94
2019-03-10T11:35:59.365Z,1012.91
2019-03-10T11:36:59.358Z,1012.88
2019-03-10T11:37:59.348Z,1012.84
2019-03-10T11:38:59.341Z,1012.79
2019-03-10T11:39:59.331Z,1012.7
2019-03-10T11:40:59.323Z,1012.65
2019-03-10T11:41:59.315Z,1012.59
2019-03-10T11:42:59.307Z,1012.54
2019-03-10T11:43:59.299Z,1012.54
2019-03-10T11:44:59.290Z,1012.51
2019-03-10T11:45:59.285Z,1012.46
2019-03-10T11:46:59.278Z,1012.4
2019-03-10T11:47:59.267Z,1012.35
2019-03-10T11:48:59.271Z,1012.4
2019-03-10T11:49:59.252Z,1012.46
2019-03-10T11:50:59.242Z,1012.48
2019-03-10T11:51:59.236Z,1012.54
2019-03-10T11:52:59.227Z,1012.6
2019-03-10T11:53:59.219Z,1012.62
2019-03-10T11:54:59.211Z,1012.64
2019-03-10T11:55:59.202Z,1012.65
2019-03-10T11:56:59.196Z,1012.64
2019-03-10T11:57:59.187Z,1012.68
2019-03-10T11:58:59.181Z,1012.67
2019-03-10T11:59:59.174Z,1012.62
2019-03-10T12:00:59.163Z,1012.55
2019-03-10T12:01:59.154Z,1012.55
2019-03-10T12:02:59.150Z,1012.54
2019-03-10T12:03:59.140Z,1012.53
2019-03-10T12:04:59.132Z,1012.48
2019-03-10T12:05:59.122Z,1012.49
2019-03-10T12:06:59.115Z,1012.48
2019-03-10T12:07:59.107Z,1012.44